sensor_id;sensor_type;location;lat;lon;timestamp;P1;durP1;ratioP1;P2;durP2;ratioP2
3307;SDS011;1666;48.898;9.182;2024-02-26T00:00:47;3.00;;;1.60;;
3307;SDS011;1666;48.898;9.182;2024-02-26T00:03:17;2.50;;;1.85;;
3307;SDS011;1666;48.898;9.182;2024-02-26T00:05:50;2.55;;;1.90;;
3307;SDS011;1666;48.898;9.182;2024-02-26T00:08:20;1.83;;;1.50;;
3307;SDS011;1666;48.898;9.182;2024-02-26T00:10:50;1.98;;;1.73;;
3307;SDS011;1666;48.898;9.182;2024-02-26T00:13:20;2.70;;;2.00;;
3307;SDS011;1666;48.898;9.182;2024-02-26T00:15:50;6.93;;;2.03;;
3307;SDS011;1666;48.898;9.182;2024-02-26T00:18:20;2.83;;;1.70;;
3307;SDS011;1666;48.898;9.182;2024-02-26T00:20:53;2.67;;;1.70;;
3307;SDS011;1666;48.898;9.182;2024-02-26T00:23:23;4.47;;;1.67;;
3307;SDS011;1666;48.898;9.182;2024-02-26T00:25:54;2.70;;;2.00;;
3307;SDS011;1666;48.898;9.182;2024-02-26T00:28:24;2.70;;;1.70;;
3307;SDS011;1666;48.898;9.182;2024-02-26T00:30:56;3.85;;;1.85;;
3307;SDS011;1666;48.898;9.182;2024-02-26T00:33:26;2.00;;;1.80;;
3307;SDS011;1666;48.898;9.182;2024-02-26T00:35:59;2.97;;;2.05;;
3307;SDS011;1666;48.898;9.182;2024-02-26T00:38:29;2.28;;;1.70;;
3307;SDS011;1666;48.898;9.182;2024-02-26T00:40:59;2.22;;;1.58;;
3307;SDS011;1666;48.898;9.182;2024-02-26T00:43:29;2.42;;;1.73;;
3307;SDS011;1666;48.898;9.182;2024-02-26T00:45:59;2.65;;;1.77;;
3307;SDS011;1666;48.898;9.182;2024-02-26T00:48:30;3.13;;;1.70;;
3307;SDS011;1666;48.898;9.182;2024-02-26T00:51:03;6.25;;;2.13;;
3307;SDS011;1666;48.898;9.182;2024-02-26T00:53:34;4.10;;;2.22;;
3307;SDS011;1666;48.898;9.182;2024-02-26T00:56:04;2.20;;;1.50;;
3307;SDS011;1666;48.898;9.182;2024-02-26T00:58:35;2.22;;;1.50;;
3307;SDS011;1666;48.898;9.182;2024-02-26T01:01:05;3.05;;;1.80;;
3307;SDS011;1666;48.898;9.182;2024-02-26T01:03:36;2.40;;;1.55;;
3307;SDS011;1666;48.898;9.182;2024-02-26T01:06:08;3.45;;;1.85;;
3307;SDS011;1666;48.898;9.182;2024-02-26T01:08:39;2.45;;;1.77;;
3307;SDS011;1666;48.898;9.182;2024-02-26T01:11:09;2.35;;;1.83;;
3307;SDS011;1666;48.898;9.182;2024-02-26T01:13:39;3.97;;;2.28;;
3307;SDS011;1666;48.898;9.182;2024-02-26T01:16:09;2.00;;;1.80;;
3307;SDS011;1666;48.898;9.182;2024-02-26T01:18:40;2.35;;;1.90;;
3307;SDS011;1666;48.898;9.182;2024-02-26T01:21:12;2.33;;;1.85;;
3307;SDS011;1666;48.898;9.182;2024-02-26T01:23:42;2.78;;;2.00;;
3307;SDS011;1666;48.898;9.182;2024-02-26T01:26:12;2.33;;;1.98;;
3307;SDS011;1666;48.898;9.182;2024-02-26T01:28:42;1.88;;;1.63;;
3307;SDS011;1666;48.898;9.182;2024-02-26T01:31:13;2.35;;;1.75;;
3307;SDS011;1666;48.898;9.182;2024-02-26T01:33:43;3.08;;;2.30;;
3307;SDS011;1666;48.898;9.182;2024-02-26T01:36:16;3.95;;;1.60;;
3307;SDS011;1666;48.898;9.182;2024-02-26T01:38:46;3.92;;;2.58;;
3307;SDS011;1666;48.898;9.182;2024-02-26T01:41:16;5.80;;;2.38;;
3307;SDS011;1666;48.898;9.182;2024-02-26T01:43:46;2.65;;;1.70;;
3307;SDS011;1666;48.898;9.182;2024-02-26T01:46:16;2.60;;;2.13;;
3307;SDS011;1666;48.898;9.182;2024-02-26T01:48:47;3.08;;;2.03;;
3307;SDS011;1666;48.898;9.182;2024-02-26T01:51:21;3.90;;;2.15;;
3307;SDS011;1666;48.898;9.182;2024-02-26T01:53:51;3.67;;;1.90;;
3307;SDS011;1666;48.898;9.182;2024-02-26T01:56:22;3.17;;;1.80;;
3307;SDS011;1666;48.898;9.182;2024-02-26T01:58:57;3.00;;;1.92;;
3307;SDS011;1666;48.898;9.182;2024-02-26T02:01:28;2.50;;;1.75;;
3307;SDS011;1666;48.898;9.182;2024-02-26T02:04:00;2.35;;;2.00;;
3307;SDS011;1666;48.898;9.182;2024-02-26T02:06:33;2.47;;;1.70;;
3307;SDS011;1666;48.898;9.182;2024-02-26T02:09:04;3.15;;;1.50;;
3307;SDS011;1666;48.898;9.182;2024-02-26T02:11:34;2.63;;;2.10;;
3307;SDS011;1666;48.898;9.182;2024-02-26T02:14:04;4.07;;;2.20;;
3307;SDS011;1666;48.898;9.182;2024-02-26T02:16:35;2.63;;;2.03;;
3307;SDS011;1666;48.898;9.182;2024-02-26T02:19:05;2.75;;;2.10;;
3307;SDS011;1666;48.898;9.182;2024-02-26T02:21:38;3.35;;;2.05;;
3307;SDS011;1666;48.898;9.182;2024-02-26T02:24:08;2.25;;;1.80;;
3307;SDS011;1666;48.898;9.182;2024-02-26T02:26:38;2.83;;;1.90;;
3307;SDS011;1666;48.898;9.182;2024-02-26T02:29:08;3.03;;;2.00;;
3307;SDS011;1666;48.898;9.182;2024-02-26T02:31:39;3.65;;;2.10;;
3307;SDS011;1666;48.898;9.182;2024-02-26T02:34:09;3.35;;;1.98;;
3307;SDS011;1666;48.898;9.182;2024-02-26T02:36:51;5.18;;;1.77;;
3307;SDS011;1666;48.898;9.182;2024-02-26T02:39:21;3.28;;;1.63;;
3307;SDS011;1666;48.898;9.182;2024-02-26T02:41:52;2.80;;;2.13;;
3307;SDS011;1666;48.898;9.182;2024-02-26T02:44:22;2.55;;;1.80;;
3307;SDS011;1666;48.898;9.182;2024-02-26T02:46:52;2.10;;;1.90;;
3307;SDS011;1666;48.898;9.182;2024-02-26T02:49:22;2.10;;;1.70;;
3307;SDS011;1666;48.898;9.182;2024-02-26T02:51:54;1.92;;;1.63;;
3307;SDS011;1666;48.898;9.182;2024-02-26T02:54:24;3.83;;;1.80;;
3307;SDS011;1666;48.898;9.182;2024-02-26T02:56:54;2.00;;;1.67;;
3307;SDS011;1666;48.898;9.182;2024-02-26T02:59:25;4.15;;;2.00;;
3307;SDS011;1666;48.898;9.182;2024-02-26T03:01:55;2.35;;;1.80;;
3307;SDS011;1666;48.898;9.182;2024-02-26T03:04:25;3.03;;;1.98;;
3307;SDS011;1666;48.898;9.182;2024-02-26T03:06:58;2.95;;;1.90;;
3307;SDS011;1666;48.898;9.182;2024-02-26T03:09:28;2.70;;;1.83;;
3307;SDS011;1666;48.898;9.182;2024-02-26T03:11:59;2.75;;;1.40;;
3307;SDS011;1666;48.898;9.182;2024-02-26T03:14:29;1.80;;;1.30;;
3307;SDS011;1666;48.898;9.182;2024-02-26T03:16:59;2.38;;;1.42;;
3307;SDS011;1666;48.898;9.182;2024-02-26T03:19:29;1.65;;;1.23;;
3307;SDS011;1666;48.898;9.182;2024-02-26T03:22:02;2.22;;;1.50;;
3307;SDS011;1666;48.898;9.182;2024-02-26T03:24:35;2.95;;;1.50;;
3307;SDS011;1666;48.898;9.182;2024-02-26T03:27:05;1.58;;;1.40;;
3307;SDS011;1666;48.898;9.182;2024-02-26T03:29:36;2.67;;;1.50;;
3307;SDS011;1666;48.898;9.182;2024-02-26T03:32:07;2.03;;;1.42;;
3307;SDS011;1666;48.898;9.182;2024-02-26T03:34:37;3.17;;;1.80;;
3307;SDS011;1666;48.898;9.182;2024-02-26T03:37:11;2.72;;;1.70;;
3307;SDS011;1666;48.898;9.182;2024-02-26T03:39:41;2.17;;;1.50;;
3307;SDS011;1666;48.898;9.182;2024-02-26T03:42:12;2.83;;;1.40;;
3307;SDS011;1666;48.898;9.182;2024-02-26T03:44:43;2.50;;;1.40;;
3307;SDS011;1666;48.898;9.182;2024-02-26T03:47:13;2.45;;;1.65;;
3307;SDS011;1666;48.898;9.182;2024-02-26T03:49:43;1.65;;;1.50;;
3307;SDS011;1666;48.898;9.182;2024-02-26T03:52:15;2.75;;;1.60;;
3307;SDS011;1666;48.898;9.182;2024-02-26T03:54:45;2.97;;;1.90;;
3307;SDS011;1666;48.898;9.182;2024-02-26T03:57:16;3.40;;;1.90;;
3307;SDS011;1666;48.898;9.182;2024-02-26T03:59:46;3.30;;;2.20;;
3307;SDS011;1666;48.898;9.182;2024-02-26T04:02:16;2.15;;;1.80;;
3307;SDS011;1666;48.898;9.182;2024-02-26T04:04:46;3.05;;;1.75;;
3307;SDS011;1666;48.898;9.182;2024-02-26T04:07:19;2.20;;;1.80;;
3307;SDS011;1666;48.898;9.182;2024-02-26T04:09:49;3.47;;;2.05;;
3307;SDS011;1666;48.898;9.182;2024-02-26T04:12:19;2.60;;;2.10;;
3307;SDS011;1666;48.898;9.182;2024-02-26T04:14:49;4.15;;;2.20;;
3307;SDS011;1666;48.898;9.182;2024-02-26T04:17:19;2.60;;;1.80;;
3307;SDS011;1666;48.898;9.182;2024-02-26T04:19:49;3.50;;;2.55;;
3307;SDS011;1666;48.898;9.182;2024-02-26T04:22:22;3.00;;;2.00;;
3307;SDS011;1666;48.898;9.182;2024-02-26T04:24:53;2.85;;;1.90;;
3307;SDS011;1666;48.898;9.182;2024-02-26T04:27:23;2.92;;;2.20;;
3307;SDS011;1666;48.898;9.182;2024-02-26T04:29:53;2.35;;;2.00;;
3307;SDS011;1666;48.898;9.182;2024-02-26T04:32:23;2.33;;;2.10;;
3307;SDS011;1666;48.898;9.182;2024-02-26T04:34:54;3.30;;;2.15;;
3307;SDS011;1666;48.898;9.182;2024-02-26T04:37:27;2.88;;;1.80;;
3307;SDS011;1666;48.898;9.182;2024-02-26T04:39:58;2.80;;;1.80;;
3307;SDS011;1666;48.898;9.182;2024-02-26T04:42:29;2.05;;;1.77;;
3307;SDS011;1666;48.898;9.182;2024-02-26T04:44:59;2.08;;;1.58;;
3307;SDS011;1666;48.898;9.182;2024-02-26T04:47:29;5.82;;;2.08;;
3307;SDS011;1666;48.898;9.182;2024-02-26T04:50:00;3.15;;;2.00;;
3307;SDS011;1666;48.898;9.182;2024-02-26T04:52:32;3.08;;;1.80;;
3307;SDS011;1666;48.898;9.182;2024-02-26T04:55:03;3.95;;;1.77;;
3307;SDS011;1666;48.898;9.182;2024-02-26T04:57:33;2.10;;;1.48;;
3307;SDS011;1666;48.898;9.182;2024-02-26T05:00:03;3.50;;;2.05;;
3307;SDS011;1666;48.898;9.182;2024-02-26T05:02:34;2.50;;;1.70;;
3307;SDS011;1666;48.898;9.182;2024-02-26T05:05:05;2.90;;;2.22;;
3307;SDS011;1666;48.898;9.182;2024-02-26T05:07:41;3.80;;;2.10;;
3307;SDS011;1666;48.898;9.182;2024-02-26T05:10:12;3.50;;;1.90;;
3307;SDS011;1666;48.898;9.182;2024-02-26T05:12:42;1.90;;;1.70;;
3307;SDS011;1666;48.898;9.182;2024-02-26T05:15:12;2.40;;;1.90;;
3307;SDS011;1666;48.898;9.182;2024-02-26T05:17:45;4.10;;;2.15;;
3307;SDS011;1666;48.898;9.182;2024-02-26T05:20:15;3.10;;;2.15;;
3307;SDS011;1666;48.898;9.182;2024-02-26T05:22:48;3.22;;;2.15;;
3307;SDS011;1666;48.898;9.182;2024-02-26T05:25:18;3.22;;;1.95;;
3307;SDS011;1666;48.898;9.182;2024-02-26T05:27:48;3.20;;;2.20;;
3307;SDS011;1666;48.898;9.182;2024-02-26T05:30:18;3.05;;;1.83;;
3307;SDS011;1666;48.898;9.182;2024-02-26T05:32:49;3.60;;;2.00;;
3307;SDS011;1666;48.898;9.182;2024-02-26T05:35:23;5.00;;;3.47;;
3307;SDS011;1666;48.898;9.182;2024-02-26T05:37:56;4.15;;;2.10;;
3307;SDS011;1666;48.898;9.182;2024-02-26T05:40:26;3.90;;;1.92;;
3307;SDS011;1666;48.898;9.182;2024-02-26T05:42:56;3.42;;;2.03;;
3307;SDS011;1666;48.898;9.182;2024-02-26T05:45:27;4.00;;;1.90;;
3307;SDS011;1666;48.898;9.182;2024-02-26T05:47:57;5.50;;;1.85;;
3307;SDS011;1666;48.898;9.182;2024-02-26T05:50:27;3.10;;;2.13;;
3307;SDS011;1666;48.898;9.182;2024-02-26T05:53:00;5.90;;;2.33;;
3307;SDS011;1666;48.898;9.182;2024-02-26T05:55:30;2.60;;;2.13;;
3307;SDS011;1666;48.898;9.182;2024-02-26T05:58:00;6.05;;;2.58;;
3307;SDS011;1666;48.898;9.182;2024-02-26T06:00:30;4.82;;;2.22;;
3307;SDS011;1666;48.898;9.182;2024-02-26T06:03:00;5.15;;;2.92;;
3307;SDS011;1666;48.898;9.182;2024-02-26T06:05:31;9.15;;;2.80;;
3307;SDS011;1666;48.898;9.182;2024-02-26T06:08:04;4.40;;;2.25;;
3307;SDS011;1666;48.898;9.182;2024-02-26T06:10:35;3.65;;;2.75;;
3307;SDS011;1666;48.898;9.182;2024-02-26T06:13:06;4.18;;;3.03;;
3307;SDS011;1666;48.898;9.182;2024-02-26T06:15:36;4.22;;;2.67;;
3307;SDS011;1666;48.898;9.182;2024-02-26T06:18:06;3.90;;;2.70;;
3307;SDS011;1666;48.898;9.182;2024-02-26T06:20:36;5.95;;;2.60;;
3307;SDS011;1666;48.898;9.182;2024-02-26T06:23:09;5.95;;;2.83;;
3307;SDS011;1666;48.898;9.182;2024-02-26T06:25:39;5.90;;;3.20;;
3307;SDS011;1666;48.898;9.182;2024-02-26T06:28:09;3.95;;;2.92;;
3307;SDS011;1666;48.898;9.182;2024-02-26T06:30:39;3.67;;;2.95;;
3307;SDS011;1666;48.898;9.182;2024-02-26T06:33:10;3.42;;;2.67;;
3307;SDS011;1666;48.898;9.182;2024-02-26T06:35:41;3.70;;;2.72;;
3307;SDS011;1666;48.898;9.182;2024-02-26T06:38:21;4.03;;;2.58;;
3307;SDS011;1666;48.898;9.182;2024-02-26T06:40:51;3.95;;;2.85;;
3307;SDS011;1666;48.898;9.182;2024-02-26T06:43:21;5.05;;;2.95;;
3307;SDS011;1666;48.898;9.182;2024-02-26T06:45:51;4.60;;;3.03;;
3307;SDS011;1666;48.898;9.182;2024-02-26T06:48:22;5.63;;;3.40;;
3307;SDS011;1666;48.898;9.182;2024-02-26T06:50:53;5.95;;;4.03;;
3307;SDS011;1666;48.898;9.182;2024-02-26T06:53:26;5.13;;;3.33;;
3307;SDS011;1666;48.898;9.182;2024-02-26T06:55:56;4.72;;;3.60;;
3307;SDS011;1666;48.898;9.182;2024-02-26T06:58:26;4.57;;;3.47;;
3307;SDS011;1666;48.898;9.182;2024-02-26T07:03:30;4.95;;;3.35;;
3307;SDS011;1666;48.898;9.182;2024-02-26T07:06:00;6.38;;;3.70;;
3307;SDS011;1666;48.898;9.182;2024-02-26T07:08:33;5.60;;;3.80;;
3307;SDS011;1666;48.898;9.182;2024-02-26T07:11:03;5.20;;;3.75;;
3307;SDS011;1666;48.898;9.182;2024-02-26T07:13:36;8.37;;;5.03;;
3307;SDS011;1666;48.898;9.182;2024-02-26T07:16:08;5.07;;;3.67;;
3307;SDS011;1666;48.898;9.182;2024-02-26T07:18:39;5.00;;;4.32;;
3307;SDS011;1666;48.898;9.182;2024-02-26T07:21:11;5.50;;;3.55;;
3307;SDS011;1666;48.898;9.182;2024-02-26T07:23:44;5.90;;;3.25;;
3307;SDS011;1666;48.898;9.182;2024-02-26T07:26:14;5.05;;;3.42;;
3307;SDS011;1666;48.898;9.182;2024-02-26T07:28:46;4.82;;;3.25;;
3307;SDS011;1666;48.898;9.182;2024-02-26T07:31:17;7.40;;;4.20;;
3307;SDS011;1666;48.898;9.182;2024-02-26T07:33:47;4.90;;;4.00;;
3307;SDS011;1666;48.898;9.182;2024-02-26T07:36:17;5.10;;;4.03;;
3307;SDS011;1666;48.898;9.182;2024-02-26T07:38:49;6.57;;;3.88;;
3307;SDS011;1666;48.898;9.182;2024-02-26T07:41:21;7.35;;;3.55;;
3307;SDS011;1666;48.898;9.182;2024-02-26T07:43:51;6.07;;;3.40;;
3307;SDS011;1666;48.898;9.182;2024-02-26T07:46:21;3.65;;;2.75;;
3307;SDS011;1666;48.898;9.182;2024-02-26T07:48:51;3.63;;;2.88;;
3307;SDS011;1666;48.898;9.182;2024-02-26T07:51:21;4.90;;;2.95;;
3307;SDS011;1666;48.898;9.182;2024-02-26T07:53:54;4.95;;;2.60;;
3307;SDS011;1666;48.898;9.182;2024-02-26T07:56:24;4.07;;;2.92;;
3307;SDS011;1666;48.898;9.182;2024-02-26T07:58:54;10.75;;;3.20;;
3307;SDS011;1666;48.898;9.182;2024-02-26T08:01:25;5.97;;;3.03;;
3307;SDS011;1666;48.898;9.182;2024-02-26T08:03:55;4.43;;;2.55;;
3307;SDS011;1666;48.898;9.182;2024-02-26T08:06:25;4.60;;;2.90;;
3307;SDS011;1666;48.898;9.182;2024-02-26T08:08:58;4.18;;;2.90;;
3307;SDS011;1666;48.898;9.182;2024-02-26T08:11:28;5.00;;;3.22;;
3307;SDS011;1666;48.898;9.182;2024-02-26T08:13:58;5.60;;;3.50;;
3307;SDS011;1666;48.898;9.182;2024-02-26T08:16:28;5.15;;;3.67;;
3307;SDS011;1666;48.898;9.182;2024-02-26T08:19:01;6.35;;;3.60;;
3307;SDS011;1666;48.898;9.182;2024-02-26T08:21:31;6.65;;;4.00;;
3307;SDS011;1666;48.898;9.182;2024-02-26T08:24:06;6.07;;;3.50;;
3307;SDS011;1666;48.898;9.182;2024-02-26T08:26:36;6.07;;;3.60;;
3307;SDS011;1666;48.898;9.182;2024-02-26T08:29:06;7.35;;;4.03;;
3307;SDS011;1666;48.898;9.182;2024-02-26T08:31:36;7.30;;;3.85;;
3307;SDS011;1666;48.898;9.182;2024-02-26T08:34:06;6.15;;;4.15;;
3307;SDS011;1666;48.898;9.182;2024-02-26T08:36:36;7.53;;;4.68;;
3307;SDS011;1666;48.898;9.182;2024-02-26T08:39:09;8.93;;;4.63;;
3307;SDS011;1666;48.898;9.182;2024-02-26T08:41:40;6.85;;;4.45;;
3307;SDS011;1666;48.898;9.182;2024-02-26T08:44:10;7.05;;;4.07;;
3307;SDS011;1666;48.898;9.182;2024-02-26T08:46:40;9.55;;;4.28;;
3307;SDS011;1666;48.898;9.182;2024-02-26T08:49:12;6.60;;;3.75;;
3307;SDS011;1666;48.898;9.182;2024-02-26T08:51:43;7.85;;;4.03;;
3307;SDS011;1666;48.898;9.182;2024-02-26T08:54:15;5.85;;;4.28;;
3307;SDS011;1666;48.898;9.182;2024-02-26T08:56:45;6.72;;;4.05;;
3307;SDS011;1666;48.898;9.182;2024-02-26T08:59:16;6.07;;;4.03;;
3307;SDS011;1666;48.898;9.182;2024-02-26T09:01:50;6.45;;;4.20;;
3307;SDS011;1666;48.898;9.182;2024-02-26T09:04:20;6.35;;;4.13;;
3307;SDS011;1666;48.898;9.182;2024-02-26T09:06:50;7.97;;;3.80;;
3307;SDS011;1666;48.898;9.182;2024-02-26T09:09:23;5.93;;;3.72;;
3307;SDS011;1666;48.898;9.182;2024-02-26T09:11:53;5.97;;;3.75;;
3307;SDS011;1666;48.898;9.182;2024-02-26T09:14:23;8.77;;;4.38;;
3307;SDS011;1666;48.898;9.182;2024-02-26T09:16:54;6.53;;;4.20;;
3307;SDS011;1666;48.898;9.182;2024-02-26T09:19:24;6.88;;;4.10;;
3307;SDS011;1666;48.898;9.182;2024-02-26T09:21:55;6.53;;;4.00;;
3307;SDS011;1666;48.898;9.182;2024-02-26T09:24:28;7.03;;;4.30;;
3307;SDS011;1666;48.898;9.182;2024-02-26T09:26:58;6.32;;;3.53;;
3307;SDS011;1666;48.898;9.182;2024-02-26T09:29:29;4.95;;;3.58;;
3307;SDS011;1666;48.898;9.182;2024-02-26T09:31:59;4.90;;;3.40;;
3307;SDS011;1666;48.898;9.182;2024-02-26T09:34:29;5.07;;;3.63;;
3307;SDS011;1666;48.898;9.182;2024-02-26T09:37:01;5.65;;;3.08;;
3307;SDS011;1666;48.898;9.182;2024-02-26T09:39:46;5.35;;;3.42;;
3307;SDS011;1666;48.898;9.182;2024-02-26T09:42:17;5.18;;;3.22;;
3307;SDS011;1666;48.898;9.182;2024-02-26T09:44:49;2.97;;;2.50;;
3307;SDS011;1666;48.898;9.182;2024-02-26T09:47:21;5.75;;;2.92;;
3307;SDS011;1666;48.898;9.182;2024-02-26T09:49:54;4.18;;;2.90;;
3307;SDS011;1666;48.898;9.182;2024-02-26T09:52:26;5.22;;;2.85;;
3307;SDS011;1666;48.898;9.182;2024-02-26T09:55:03;3.75;;;2.58;;
3307;SDS011;1666;48.898;9.182;2024-02-26T09:57:34;4.07;;;2.85;;
3307;SDS011;1666;48.898;9.182;2024-02-26T10:00:06;3.33;;;2.88;;
3307;SDS011;1666;48.898;9.182;2024-02-26T10:02:39;4.20;;;2.53;;
3307;SDS011;1666;48.898;9.182;2024-02-26T10:05:10;4.47;;;2.35;;
3307;SDS011;1666;48.898;9.182;2024-02-26T10:07:44;3.50;;;3.20;;
3307;SDS011;1666;48.898;9.182;2024-02-26T10:10:17;4.18;;;2.60;;
3307;SDS011;1666;48.898;9.182;2024-02-26T10:12:47;3.28;;;2.67;;
3307;SDS011;1666;48.898;9.182;2024-02-26T10:15:17;2.85;;;2.55;;
3307;SDS011;1666;48.898;9.182;2024-02-26T10:17:47;3.65;;;2.70;;
3307;SDS011;1666;48.898;9.182;2024-02-26T10:20:18;4.05;;;2.78;;
3307;SDS011;1666;48.898;9.182;2024-02-26T10:22:50;3.67;;;2.67;;
3307;SDS011;1666;48.898;9.182;2024-02-26T10:25:23;4.05;;;2.70;;
3307;SDS011;1666;48.898;9.182;2024-02-26T10:27:53;2.97;;;2.58;;
3307;SDS011;1666;48.898;9.182;2024-02-26T10:30:23;3.58;;;2.63;;
3307;SDS011;1666;48.898;9.182;2024-02-26T10:32:54;3.35;;;2.50;;
3307;SDS011;1666;48.898;9.182;2024-02-26T10:35:25;3.03;;;2.55;;
3307;SDS011;1666;48.898;9.182;2024-02-26T10:37:57;5.97;;;2.50;;
3307;SDS011;1666;48.898;9.182;2024-02-26T10:40:30;3.05;;;2.20;;
3307;SDS011;1666;48.898;9.182;2024-02-26T10:43:00;3.42;;;2.78;;
3307;SDS011;1666;48.898;9.182;2024-02-26T10:45:31;2.90;;;2.13;;
3307;SDS011;1666;48.898;9.182;2024-02-26T10:48:04;2.88;;;2.40;;
3307;SDS011;1666;48.898;9.182;2024-02-26T10:50:39;3.92;;;2.33;;
3307;SDS011;1666;48.898;9.182;2024-02-26T10:53:12;2.72;;;2.00;;
3307;SDS011;1666;48.898;9.182;2024-02-26T10:55:52;2.85;;;2.00;;
3307;SDS011;1666;48.898;9.182;2024-02-26T10:58:24;3.72;;;2.03;;
3307;SDS011;1666;48.898;9.182;2024-02-26T11:00:56;3.90;;;2.42;;
3307;SDS011;1666;48.898;9.182;2024-02-26T11:03:27;4.28;;;2.50;;
3307;SDS011;1666;48.898;9.182;2024-02-26T11:06:02;2.80;;;2.22;;
3307;SDS011;1666;48.898;9.182;2024-02-26T11:08:34;4.15;;;2.17;;
3307;SDS011;1666;48.898;9.182;2024-02-26T11:11:07;3.65;;;2.03;;
3307;SDS011;1666;48.898;9.182;2024-02-26T11:13:42;6.93;;;4.50;;
3307;SDS011;1666;48.898;9.182;2024-02-26T11:16:16;6.13;;;2.55;;
3307;SDS011;1666;48.898;9.182;2024-02-26T11:18:48;2.22;;;1.40;;
3307;SDS011;1666;48.898;9.182;2024-02-26T11:21:19;4.47;;;3.25;;
3307;SDS011;1666;48.898;9.182;2024-02-26T11:24:05;1.77;;;1.63;;
3307;SDS011;1666;48.898;9.182;2024-02-26T11:26:40;2.95;;;2.05;;
3307;SDS011;1666;48.898;9.182;2024-02-26T11:29:16;2.70;;;1.90;;
3307;SDS011;1666;48.898;9.182;2024-02-26T11:31:50;2.25;;;1.90;;
3307;SDS011;1666;48.898;9.182;2024-02-26T11:34:21;3.75;;;1.95;;
3307;SDS011;1666;48.898;9.182;2024-02-26T11:36:52;1.88;;;1.50;;
3307;SDS011;1666;48.898;9.182;2024-02-26T11:39:23;2.47;;;2.00;;
3307;SDS011;1666;48.898;9.182;2024-02-26T11:41:57;6.85;;;2.33;;
3307;SDS011;1666;48.898;9.182;2024-02-26T11:44:35;2.50;;;1.65;;
3307;SDS011;1666;48.898;9.182;2024-02-26T11:47:11;2.03;;;1.58;;
3307;SDS011;1666;48.898;9.182;2024-02-26T11:49:42;2.83;;;1.45;;
3307;SDS011;1666;48.898;9.182;2024-02-26T11:52:12;1.77;;;1.40;;
3307;SDS011;1666;48.898;9.182;2024-02-26T11:54:44;2.42;;;1.30;;
3307;SDS011;1666;48.898;9.182;2024-02-26T11:57:27;3.22;;;1.60;;
3307;SDS011;1666;48.898;9.182;2024-02-26T12:00:10;4.03;;;1.30;;
3307;SDS011;1666;48.898;9.182;2024-02-26T12:02:44;1.58;;;1.42;;
3307;SDS011;1666;48.898;9.182;2024-02-26T12:05:15;4.00;;;1.60;;
3307;SDS011;1666;48.898;9.182;2024-02-26T12:07:48;2.30;;;1.52;;
3307;SDS011;1666;48.898;9.182;2024-02-26T12:10:23;2.42;;;1.20;;
3307;SDS011;1666;48.898;9.182;2024-02-26T12:13:02;3.20;;;1.60;;
3307;SDS011;1666;48.898;9.182;2024-02-26T12:15:36;5.10;;;1.45;;
3307;SDS011;1666;48.898;9.182;2024-02-26T12:18:08;1.48;;;1.10;;
3307;SDS011;1666;48.898;9.182;2024-02-26T12:20:39;1.95;;;1.40;;
3307;SDS011;1666;48.898;9.182;2024-02-26T12:23:14;3.38;;;1.10;;
3307;SDS011;1666;48.898;9.182;2024-02-26T12:25:44;2.70;;;1.77;;
3307;SDS011;1666;48.898;9.182;2024-02-26T12:28:17;1.58;;;1.10;;
3307;SDS011;1666;48.898;9.182;2024-02-26T12:30:47;2.95;;;1.25;;
3307;SDS011;1666;48.898;9.182;2024-02-26T12:33:18;3.60;;;1.60;;
3307;SDS011;1666;48.898;9.182;2024-02-26T12:35:48;2.33;;;1.30;;
3307;SDS011;1666;48.898;9.182;2024-02-26T12:38:19;4.68;;;1.20;;
3307;SDS011;1666;48.898;9.182;2024-02-26T12:40:50;2.97;;;1.45;;
3307;SDS011;1666;48.898;9.182;2024-02-26T12:43:23;1.63;;;1.27;;
3307;SDS011;1666;48.898;9.182;2024-02-26T12:45:53;3.05;;;1.65;;
3307;SDS011;1666;48.898;9.182;2024-02-26T12:48:23;2.33;;;1.73;;
3307;SDS011;1666;48.898;9.182;2024-02-26T12:50:54;6.18;;;1.70;;
3307;SDS011;1666;48.898;9.182;2024-02-26T12:53:26;2.33;;;1.50;;
3307;SDS011;1666;48.898;9.182;2024-02-26T12:55:56;4.22;;;1.73;;
3307;SDS011;1666;48.898;9.182;2024-02-26T12:58:29;2.10;;;1.40;;
3307;SDS011;1666;48.898;9.182;2024-02-26T13:01:01;3.30;;;1.35;;
3307;SDS011;1666;48.898;9.182;2024-02-26T13:03:33;1.75;;;1.35;;
3307;SDS011;1666;48.898;9.182;2024-02-26T13:06:05;2.92;;;1.35;;
3307;SDS011;1666;48.898;9.182;2024-02-26T13:08:36;2.45;;;1.70;;
3307;SDS011;1666;48.898;9.182;2024-02-26T13:11:07;2.13;;;1.10;;
3307;SDS011;1666;48.898;9.182;2024-02-26T13:13:40;1.70;;;1.17;;
3307;SDS011;1666;48.898;9.182;2024-02-26T13:16:13;1.70;;;1.13;;
3307;SDS011;1666;48.898;9.182;2024-02-26T13:18:44;1.00;;;0.90;;
3307;SDS011;1666;48.898;9.182;2024-02-26T13:21:14;1.42;;;1.00;;
3307;SDS011;1666;48.898;9.182;2024-02-26T13:23:47;2.30;;;1.30;;
3307;SDS011;1666;48.898;9.182;2024-02-26T13:26:21;1.45;;;1.27;;
3307;SDS011;1666;48.898;9.182;2024-02-26T13:29:02;2.83;;;1.02;;
3307;SDS011;1666;48.898;9.182;2024-02-26T13:31:38;1.35;;;0.80;;
3307;SDS011;1666;48.898;9.182;2024-02-26T13:34:11;2.95;;;1.10;;
3307;SDS011;1666;48.898;9.182;2024-02-26T13:36:41;2.60;;;1.13;;
3307;SDS011;1666;48.898;9.182;2024-02-26T13:39:11;1.98;;;1.02;;
3307;SDS011;1666;48.898;9.182;2024-02-26T13:41:51;1.13;;;0.95;;
3307;SDS011;1666;48.898;9.182;2024-02-26T13:44:26;1.85;;;0.80;;
3307;SDS011;1666;48.898;9.182;2024-02-26T13:46:56;1.35;;;0.80;;
3307;SDS011;1666;48.898;9.182;2024-02-26T13:49:26;3.15;;;1.10;;
3307;SDS011;1666;48.898;9.182;2024-02-26T13:51:56;0.73;;;0.50;;
3307;SDS011;1666;48.898;9.182;2024-02-26T13:54:26;3.13;;;1.10;;
3307;SDS011;1666;48.898;9.182;2024-02-26T13:56:56;3.67;;;1.05;;
3307;SDS011;1666;48.898;9.182;2024-02-26T13:59:29;1.52;;;0.85;;
3307;SDS011;1666;48.898;9.182;2024-02-26T14:02:01;1.23;;;0.55;;
3307;SDS011;1666;48.898;9.182;2024-02-26T14:04:31;0.95;;;0.60;;
3307;SDS011;1666;48.898;9.182;2024-02-26T14:07:01;1.20;;;0.63;;
3307;SDS011;1666;48.898;9.182;2024-02-26T14:09:33;1.30;;;0.70;;
3307;SDS011;1666;48.898;9.182;2024-02-26T14:12:15;1.48;;;0.40;;
3307;SDS011;1666;48.898;9.182;2024-02-26T14:14:53;0.65;;;0.30;;
3307;SDS011;1666;48.898;9.182;2024-02-26T14:17:25;0.63;;;0.50;;
3307;SDS011;1666;48.898;9.182;2024-02-26T14:19:55;0.32;;;0.20;;
3307;SDS011;1666;48.898;9.182;2024-02-26T14:22:26;1.58;;;0.43;;
3307;SDS011;1666;48.898;9.182;2024-02-26T14:24:57;2.80;;;0.98;;
3307;SDS011;1666;48.898;9.182;2024-02-26T14:27:27;1.27;;;0.55;;
3307;SDS011;1666;48.898;9.182;2024-02-26T14:30:00;0.63;;;0.30;;
3307;SDS011;1666;48.898;9.182;2024-02-26T14:32:31;0.50;;;0.30;;
3307;SDS011;1666;48.898;9.182;2024-02-26T14:35:05;1.63;;;0.40;;
3307;SDS011;1666;48.898;9.182;2024-02-26T14:37:42;0.70;;;0.22;;
3307;SDS011;1666;48.898;9.182;2024-02-26T14:40:14;1.10;;;0.40;;
3307;SDS011;1666;48.898;9.182;2024-02-26T14:42:45;0.40;;;0.20;;
3307;SDS011;1666;48.898;9.182;2024-02-26T14:45:18;1.30;;;0.47;;
3307;SDS011;1666;48.898;9.182;2024-02-26T14:47:48;3.00;;;0.57;;
3307;SDS011;1666;48.898;9.182;2024-02-26T14:50:18;2.28;;;0.93;;
3307;SDS011;1666;48.898;9.182;2024-02-26T14:52:48;1.05;;;0.60;;
3307;SDS011;1666;48.898;9.182;2024-02-26T14:55:19;0.75;;;0.50;;
3307;SDS011;1666;48.898;9.182;2024-02-26T14:57:49;0.70;;;0.52;;
3307;SDS011;1666;48.898;9.182;2024-02-26T15:00:22;1.88;;;1.15;;
3307;SDS011;1666;48.898;9.182;2024-02-26T15:02:52;2.25;;;0.80;;
3307;SDS011;1666;48.898;9.182;2024-02-26T15:05:27;2.88;;;0.70;;
3307;SDS011;1666;48.898;9.182;2024-02-26T15:07:57;2.97;;;0.90;;
3307;SDS011;1666;48.898;9.182;2024-02-26T15:10:27;2.42;;;0.82;;
3307;SDS011;1666;48.898;9.182;2024-02-26T15:12:57;1.17;;;0.43;;
3307;SDS011;1666;48.898;9.182;2024-02-26T15:15:30;0.90;;;0.50;;
3307;SDS011;1666;48.898;9.182;2024-02-26T15:18:00;1.98;;;0.50;;
3307;SDS011;1666;48.898;9.182;2024-02-26T15:20:31;0.77;;;0.40;;
3307;SDS011;1666;48.898;9.182;2024-02-26T15:23:01;0.88;;;0.50;;
3307;SDS011;1666;48.898;9.182;2024-02-26T15:25:31;0.95;;;0.43;;
3307;SDS011;1666;48.898;9.182;2024-02-26T15:28:01;1.23;;;0.40;;
3307;SDS011;1666;48.898;9.182;2024-02-26T15:30:35;1.08;;;0.30;;
3307;SDS011;1666;48.898;9.182;2024-02-26T15:33:05;0.60;;;0.40;;
3307;SDS011;1666;48.898;9.182;2024-02-26T15:35:36;1.98;;;0.93;;
3307;SDS011;1666;48.898;9.182;2024-02-26T15:38:06;2.35;;;1.40;;
3307;SDS011;1666;48.898;9.182;2024-02-26T15:40:36;2.63;;;1.50;;
3307;SDS011;1666;48.898;9.182;2024-02-26T15:43:06;4.32;;;2.30;;